sensor_id;sensor_type;location;lat;lon;timestamp;P1;durP1;ratioP1;P2;durP2;ratioP2
71665;SDS011;59503;53.486;10.196;2023-03-01T00:01:00;23.77;;;10.07;;
71665;SDS011;59503;53.486;10.196;2023-03-01T00:03:30;28.10;;;11.05;;
71665;SDS011;59503;53.486;10.196;2023-03-01T00:05:55;27.67;;;11.07;;
71665;SDS011;59503;53.486;10.196;2023-03-01T00:08:21;26.08;;;10.70;;
71665;SDS011;59503;53.486;10.196;2023-03-01T00:10:46;28.30;;;11.23;;
71665;SDS011;59503;53.486;10.196;2023-03-01T00:13:12;27.43;;;11.00;;
71665;SDS011;59503;53.486;10.196;2023-03-01T00:15:38;26.07;;;10.30;;
71665;SDS011;59503;53.486;10.196;2023-03-01T00:18:04;25.60;;;10.27;;
71665;SDS011;59503;53.486;10.196;2023-03-01T00:20:30;24.50;;;10.47;;
71665;SDS011;59503;53.486;10.196;2023-03-01T00:22:55;21.77;;;9.67;;
71665;SDS011;59503;53.486;10.196;2023-03-01T00:25:20;21.47;;;9.87;;
71665;SDS011;59503;53.486;10.196;2023-03-01T00:27:46;25.17;;;9.90;;
71665;SDS011;59503;53.486;10.196;2023-03-01T00:30:14;21.00;;;9.65;;
71665;SDS011;59503;53.486;10.196;2023-03-01T00:32:39;23.15;;;9.80;;
71665;SDS011;59503;53.486;10.196;2023-03-01T00:35:05;26.60;;;11.00;;
71665;SDS011;59503;53.486;10.196;2023-03-01T00:37:30;28.38;;;10.93;;
71665;SDS011;59503;53.486;10.196;2023-03-01T00:39:56;33.20;;;11.00;;
71665;SDS011;59503;53.486;10.196;2023-03-01T00:42:21;23.87;;;10.13;;
71665;SDS011;59503;53.486;10.196;2023-03-01T00:44:47;23.30;;;10.43;;
71665;SDS011;59503;53.486;10.196;2023-03-01T00:47:12;27.37;;;10.70;;
71665;SDS011;59503;53.486;10.196;2023-03-01T00:49:38;25.98;;;10.75;;
71665;SDS011;59503;53.486;10.196;2023-03-01T00:52:04;20.60;;;9.37;;
71665;SDS011;59503;53.486;10.196;2023-03-01T00:54:29;25.53;;;10.77;;
71665;SDS011;59503;53.486;10.196;2023-03-01T00:56:55;20.05;;;9.32;;
71665;SDS011;59503;53.486;10.196;2023-03-01T00:59:20;23.13;;;10.17;;
71665;SDS011;59503;53.486;10.196;2023-03-01T01:01:46;26.60;;;9.87;;
71665;SDS011;59503;53.486;10.196;2023-03-01T01:04:12;21.45;;;9.93;;
71665;SDS011;59503;53.486;10.196;2023-03-01T01:06:39;21.73;;;9.00;;
71665;SDS011;59503;53.486;10.196;2023-03-01T01:09:08;23.30;;;9.60;;
71665;SDS011;59503;53.486;10.196;2023-03-01T01:11:34;25.90;;;9.93;;
71665;SDS011;59503;53.486;10.196;2023-03-01T01:14:01;18.52;;;8.77;;
71665;SDS011;59503;53.486;10.196;2023-03-01T01:16:27;25.45;;;9.57;;
71665;SDS011;59503;53.486;10.196;2023-03-01T01:18:53;17.40;;;8.87;;
71665;SDS011;59503;53.486;10.196;2023-03-01T01:21:21;21.98;;;9.65;;
71665;SDS011;59503;53.486;10.196;2023-03-01T01:23:48;21.20;;;9.25;;
71665;SDS011;59503;53.486;10.196;2023-03-01T01:26:19;21.48;;;9.20;;
71665;SDS011;59503;53.486;10.196;2023-03-01T01:28:46;18.80;;;8.88;;
71665;SDS011;59503;53.486;10.196;2023-03-01T01:31:12;20.83;;;9.13;;
71665;SDS011;59503;53.486;10.196;2023-03-01T01:33:37;21.30;;;9.13;;
71665;SDS011;59503;53.486;10.196;2023-03-01T01:36:03;24.37;;;9.67;;
71665;SDS011;59503;53.486;10.196;2023-03-01T01:38:30;23.98;;;10.15;;
71665;SDS011;59503;53.486;10.196;2023-03-01T01:40:55;19.63;;;8.97;;
71665;SDS011;59503;53.486;10.196;2023-03-01T01:43:28;17.35;;;8.40;;
71665;SDS011;59503;53.486;10.196;2023-03-01T01:45:59;20.92;;;9.60;;
71665;SDS011;59503;53.486;10.196;2023-03-01T01:48:29;19.97;;;9.10;;
71665;SDS011;59503;53.486;10.196;2023-03-01T01:51:05;25.77;;;9.63;;
71665;SDS011;59503;53.486;10.196;2023-03-01T01:53:34;21.00;;;9.65;;
71665;SDS011;59503;53.486;10.196;2023-03-01T01:56:01;20.75;;;9.02;;
71665;SDS011;59503;53.486;10.196;2023-03-01T01:58:28;24.23;;;9.20;;
71665;SDS011;59503;53.486;10.196;2023-03-01T02:00:55;24.23;;;9.10;;
71665;SDS011;59503;53.486;10.196;2023-03-01T02:03:25;17.58;;;8.00;;
71665;SDS011;59503;53.486;10.196;2023-03-01T02:05:57;19.00;;;8.88;;
71665;SDS011;59503;53.486;10.196;2023-03-01T02:08:25;20.00;;;8.02;;
71665;SDS011;59503;53.486;10.196;2023-03-01T02:10:55;20.58;;;9.13;;
71665;SDS011;59503;53.486;10.196;2023-03-01T02:13:21;21.53;;;9.17;;
71665;SDS011;59503;53.486;10.196;2023-03-01T02:15:47;24.58;;;9.20;;
71665;SDS011;59503;53.486;10.196;2023-03-01T02:18:14;22.27;;;8.77;;
71665;SDS011;59503;53.486;10.196;2023-03-01T02:23:30;19.37;;;7.70;;
71665;SDS011;59503;53.486;10.196;2023-03-01T02:26:11;20.13;;;8.30;;
71665;SDS011;59503;53.486;10.196;2023-03-01T02:28:45;20.13;;;7.90;;
71665;SDS011;59503;53.486;10.196;2023-03-01T02:31:14;21.13;;;9.00;;
71665;SDS011;59503;53.486;10.196;2023-03-01T02:34:01;24.88;;;10.32;;
71665;SDS011;59503;53.486;10.196;2023-03-01T02:36:31;25.53;;;9.90;;
71665;SDS011;59503;53.486;10.196;2023-03-01T02:39:02;24.10;;;8.95;;
71665;SDS011;59503;53.486;10.196;2023-03-01T02:41:32;21.85;;;8.77;;
71665;SDS011;59503;53.486;10.196;2023-03-01T02:44:00;17.55;;;8.43;;
71665;SDS011;59503;53.486;10.196;2023-03-01T02:46:27;20.70;;;8.70;;
71665;SDS011;59503;53.486;10.196;2023-03-01T02:48:53;20.17;;;8.73;;
71665;SDS011;59503;53.486;10.196;2023-03-01T02:56:45;22.17;;;8.60;;
71665;SDS011;59503;53.486;10.196;2023-03-01T02:59:16;24.25;;;9.93;;
71665;SDS011;59503;53.486;10.196;2023-03-01T03:01:44;23.38;;;10.50;;
71665;SDS011;59503;53.486;10.196;2023-03-01T03:04:11;23.27;;;9.87;;
71665;SDS011;59503;53.486;10.196;2023-03-01T03:06:42;22.52;;;9.45;;
71665;SDS011;59503;53.486;10.196;2023-03-01T03:09:08;19.77;;;8.93;;
71665;SDS011;59503;53.486;10.196;2023-03-01T03:11:33;28.83;;;9.17;;
71665;SDS011;59503;53.486;10.196;2023-03-01T03:13:59;21.90;;;10.03;;
71665;SDS011;59503;53.486;10.196;2023-03-01T03:16:24;21.25;;;9.25;;
71665;SDS011;59503;53.486;10.196;2023-03-01T03:18:50;21.77;;;9.70;;
71665;SDS011;59503;53.486;10.196;2023-03-01T03:21:16;18.58;;;9.30;;
71665;SDS011;59503;53.486;10.196;2023-03-01T03:23:42;25.05;;;9.15;;
71665;SDS011;59503;53.486;10.196;2023-03-01T03:26:07;20.73;;;9.60;;
71665;SDS011;59503;53.486;10.196;2023-03-01T03:28:33;21.13;;;8.63;;
71665;SDS011;59503;53.486;10.196;2023-03-01T03:30:59;22.77;;;9.85;;
71665;SDS011;59503;53.486;10.196;2023-03-01T03:33:31;22.23;;;10.13;;
71665;SDS011;59503;53.486;10.196;2023-03-01T03:35:57;22.77;;;9.82;;
71665;SDS011;59503;53.486;10.196;2023-03-01T03:38:23;20.57;;;9.70;;
71665;SDS011;59503;53.486;10.196;2023-03-01T03:40:59;22.67;;;10.05;;
71665;SDS011;59503;53.486;10.196;2023-03-01T03:43:30;23.33;;;9.35;;
71665;SDS011;59503;53.486;10.196;2023-03-01T03:45:57;24.30;;;9.45;;
71665;SDS011;59503;53.486;10.196;2023-03-01T03:48:23;23.10;;;9.63;;
71665;SDS011;59503;53.486;10.196;2023-03-01T03:50:49;23.08;;;9.68;;
71665;SDS011;59503;53.486;10.196;2023-03-01T03:53:17;22.45;;;9.88;;
71665;SDS011;59503;53.486;10.196;2023-03-01T03:55:43;20.88;;;9.07;;
71665;SDS011;59503;53.486;10.196;2023-03-01T03:58:09;21.50;;;9.57;;
71665;SDS011;59503;53.486;10.196;2023-03-01T04:00:42;24.63;;;10.10;;
71665;SDS011;59503;53.486;10.196;2023-03-01T04:03:09;21.23;;;9.60;;
71665;SDS011;59503;53.486;10.196;2023-03-01T04:05:37;20.92;;;8.90;;
71665;SDS011;59503;53.486;10.196;2023-03-01T04:08:03;20.23;;;9.65;;
71665;SDS011;59503;53.486;10.196;2023-03-01T04:10:50;18.43;;;8.47;;
71665;SDS011;59503;53.486;10.196;2023-03-01T04:13:21;20.42;;;8.45;;
71665;SDS011;59503;53.486;10.196;2023-03-01T04:15:50;21.00;;;8.57;;
71665;SDS011;59503;53.486;10.196;2023-03-01T04:18:17;18.75;;;8.13;;
71665;SDS011;59503;53.486;10.196;2023-03-01T04:20:45;14.27;;;8.32;;
71665;SDS011;59503;53.486;10.196;2023-03-01T04:23:15;18.30;;;8.07;;
71665;SDS011;59503;53.486;10.196;2023-03-01T04:25:45;15.45;;;7.80;;
71665;SDS011;59503;53.486;10.196;2023-03-01T04:28:40;19.67;;;7.45;;
71665;SDS011;59503;53.486;10.196;2023-03-01T04:31:06;15.52;;;8.13;;
71665;SDS011;59503;53.486;10.196;2023-03-01T04:34:01;20.52;;;7.57;;
71665;SDS011;59503;53.486;10.196;2023-03-01T04:36:28;14.30;;;6.60;;
71665;SDS011;59503;53.486;10.196;2023-03-01T04:38:54;14.20;;;7.18;;
71665;SDS011;59503;53.486;10.196;2023-03-01T04:41:21;14.35;;;7.18;;
71665;SDS011;59503;53.486;10.196;2023-03-01T04:43:48;16.25;;;7.40;;
71665;SDS011;59503;53.486;10.196;2023-03-01T04:46:15;13.77;;;7.15;;
71665;SDS011;59503;53.486;10.196;2023-03-01T04:48:43;14.83;;;6.57;;
71665;SDS011;59503;53.486;10.196;2023-03-01T04:51:09;13.70;;;6.97;;
71665;SDS011;59503;53.486;10.196;2023-03-01T04:53:38;13.90;;;7.00;;
71665;SDS011;59503;53.486;10.196;2023-03-01T04:56:04;13.43;;;6.50;;
71665;SDS011;59503;53.486;10.196;2023-03-01T04:58:30;14.87;;;7.43;;
71665;SDS011;59503;53.486;10.196;2023-03-01T05:00:55;15.15;;;7.47;;
71665;SDS011;59503;53.486;10.196;2023-03-01T05:03:21;15.67;;;6.70;;
71665;SDS011;59503;53.486;10.196;2023-03-01T05:05:47;13.25;;;7.18;;
71665;SDS011;59503;53.486;10.196;2023-03-01T05:08:14;12.77;;;6.78;;
71665;SDS011;59503;53.486;10.196;2023-03-01T05:10:44;18.42;;;7.07;;
71665;SDS011;59503;53.486;10.196;2023-03-01T05:13:11;15.70;;;6.90;;
71665;SDS011;59503;53.486;10.196;2023-03-01T05:15:38;13.98;;;7.05;;
71665;SDS011;59503;53.486;10.196;2023-03-01T05:18:04;18.80;;;6.90;;
71665;SDS011;59503;53.486;10.196;2023-03-01T05:20:36;14.73;;;6.88;;
71665;SDS011;59503;53.486;10.196;2023-03-01T05:23:03;13.93;;;7.00;;
71665;SDS011;59503;53.486;10.196;2023-03-01T05:25:30;14.43;;;7.00;;
71665;SDS011;59503;53.486;10.196;2023-03-01T05:27:58;15.32;;;7.00;;
71665;SDS011;59503;53.486;10.196;2023-03-01T05:30:28;16.45;;;6.50;;
71665;SDS011;59503;53.486;10.196;2023-03-01T05:32:53;13.27;;;6.83;;
71665;SDS011;59503;53.486;10.196;2023-03-01T05:35:21;22.02;;;7.97;;
71665;SDS011;59503;53.486;10.196;2023-03-01T05:37:47;13.52;;;7.07;;
71665;SDS011;59503;53.486;10.196;2023-03-01T05:40:18;10.97;;;5.93;;
71665;SDS011;59503;53.486;10.196;2023-03-01T05:42:46;12.18;;;6.22;;
71665;SDS011;59503;53.486;10.196;2023-03-01T05:45:13;12.90;;;6.85;;
71665;SDS011;59503;53.486;10.196;2023-03-01T05:47:40;13.45;;;6.47;;
71665;SDS011;59503;53.486;10.196;2023-03-01T05:50:14;14.27;;;6.50;;
71665;SDS011;59503;53.486;10.196;2023-03-01T05:52:45;17.47;;;7.43;;
71665;SDS011;59503;53.486;10.196;2023-03-01T05:55:13;12.98;;;6.68;;
71665;SDS011;59503;53.486;10.196;2023-03-01T05:57:39;18.42;;;7.72;;
71665;SDS011;59503;53.486;10.196;2023-03-01T06:00:05;19.63;;;7.70;;
71665;SDS011;59503;53.486;10.196;2023-03-01T06:02:31;17.88;;;7.35;;
71665;SDS011;59503;53.486;10.196;2023-03-01T06:04:56;19.13;;;8.50;;
71665;SDS011;59503;53.486;10.196;2023-03-01T06:07:22;15.80;;;7.53;;
71665;SDS011;59503;53.486;10.196;2023-03-01T06:09:48;14.80;;;6.90;;
71665;SDS011;59503;53.486;10.196;2023-03-01T06:12:13;14.15;;;7.22;;
71665;SDS011;59503;53.486;10.196;2023-03-01T06:14:38;15.83;;;7.30;;
71665;SDS011;59503;53.486;10.196;2023-03-01T06:17:04;15.53;;;7.63;;
71665;SDS011;59503;53.486;10.196;2023-03-01T06:19:29;13.90;;;7.00;;
71665;SDS011;59503;53.486;10.196;2023-03-01T06:21:55;14.85;;;7.32;;
71665;SDS011;59503;53.486;10.196;2023-03-01T06:24:20;16.50;;;7.70;;
71665;SDS011;59503;53.486;10.196;2023-03-01T06:26:45;14.03;;;7.50;;
71665;SDS011;59503;53.486;10.196;2023-03-01T06:29:11;13.50;;;7.30;;
71665;SDS011;59503;53.486;10.196;2023-03-01T06:31:36;17.53;;;6.83;;
71665;SDS011;59503;53.486;10.196;2023-03-01T06:34:02;19.27;;;7.27;;
71665;SDS011;59503;53.486;10.196;2023-03-01T06:36:27;15.20;;;7.10;;
71665;SDS011;59503;53.486;10.196;2023-03-01T06:38:52;14.10;;;6.57;;
71665;SDS011;59503;53.486;10.196;2023-03-01T06:41:18;16.07;;;6.17;;
71665;SDS011;59503;53.486;10.196;2023-03-01T06:43:43;15.60;;;6.50;;
71665;SDS011;59503;53.486;10.196;2023-03-01T06:46:09;15.77;;;6.20;;
71665;SDS011;59503;53.486;10.196;2023-03-01T06:48:34;14.47;;;6.70;;
71665;SDS011;59503;53.486;10.196;2023-03-01T06:51:00;12.68;;;6.55;;
71665;SDS011;59503;53.486;10.196;2023-03-01T06:53:29;16.30;;;7.40;;
71665;SDS011;59503;53.486;10.196;2023-03-01T06:55:55;14.13;;;7.13;;
71665;SDS011;59503;53.486;10.196;2023-03-01T06:58:21;13.18;;;6.63;;
71665;SDS011;59503;53.486;10.196;2023-03-01T07:00:47;12.13;;;6.30;;
71665;SDS011;59503;53.486;10.196;2023-03-01T07:03:13;12.93;;;6.45;;
71665;SDS011;59503;53.486;10.196;2023-03-01T07:05:38;14.73;;;6.50;;
71665;SDS011;59503;53.486;10.196;2023-03-01T07:08:04;12.45;;;6.35;;
71665;SDS011;59503;53.486;10.196;2023-03-01T07:10:29;12.07;;;5.80;;
71665;SDS011;59503;53.486;10.196;2023-03-01T07:12:55;12.03;;;6.20;;
71665;SDS011;59503;53.486;10.196;2023-03-01T07:15:21;13.60;;;6.18;;
71665;SDS011;59503;53.486;10.196;2023-03-01T07:17:47;10.37;;;5.60;;
71665;SDS011;59503;53.486;10.196;2023-03-01T07:20:14;10.93;;;5.78;;
71665;SDS011;59503;53.486;10.196;2023-03-01T07:22:40;16.42;;;7.28;;
71665;SDS011;59503;53.486;10.196;2023-03-01T07:25:07;12.30;;;5.93;;
71665;SDS011;59503;53.486;10.196;2023-03-01T07:27:33;14.80;;;6.95;;
71665;SDS011;59503;53.486;10.196;2023-03-01T07:29:59;18.92;;;6.90;;
71665;SDS011;59503;53.486;10.196;2023-03-01T07:32:24;14.63;;;6.20;;
71665;SDS011;59503;53.486;10.196;2023-03-01T07:34:50;13.97;;;7.20;;
71665;SDS011;59503;53.486;10.196;2023-03-01T07:37:16;14.32;;;6.63;;
71665;SDS011;59503;53.486;10.196;2023-03-01T07:39:42;16.03;;;6.60;;
71665;SDS011;59503;53.486;10.196;2023-03-01T07:42:07;13.00;;;6.78;;
71665;SDS011;59503;53.486;10.196;2023-03-01T07:44:33;13.90;;;6.07;;
71665;SDS011;59503;53.486;10.196;2023-03-01T07:47:03;13.63;;;6.60;;
71665;SDS011;59503;53.486;10.196;2023-03-01T07:49:28;14.63;;;6.60;;
71665;SDS011;59503;53.486;10.196;2023-03-01T07:51:54;14.10;;;6.33;;
71665;SDS011;59503;53.486;10.196;2023-03-01T07:54:19;14.57;;;6.57;;
71665;SDS011;59503;53.486;10.196;2023-03-01T07:56:45;14.03;;;6.37;;
71665;SDS011;59503;53.486;10.196;2023-03-01T07:59:10;13.40;;;6.90;;
71665;SDS011;59503;53.486;10.196;2023-03-01T08:01:36;16.95;;;6.55;;
71665;SDS011;59503;53.486;10.196;2023-03-01T08:04:01;18.03;;;7.50;;
71665;SDS011;59503;53.486;10.196;2023-03-01T08:06:27;18.37;;;6.70;;
71665;SDS011;59503;53.486;10.196;2023-03-01T08:08:52;18.90;;;7.15;;
71665;SDS011;59503;53.486;10.196;2023-03-01T08:11:20;13.73;;;6.60;;
71665;SDS011;59503;53.486;10.196;2023-03-01T08:13:49;18.30;;;7.55;;
71665;SDS011;59503;53.486;10.196;2023-03-01T08:16:15;12.48;;;6.45;;
71665;SDS011;59503;53.486;10.196;2023-03-01T08:18:41;13.63;;;7.05;;
71665;SDS011;59503;53.486;10.196;2023-03-01T08:21:09;14.10;;;6.57;;
71665;SDS011;59503;53.486;10.196;2023-03-01T08:23:36;14.77;;;6.00;;
71665;SDS011;59503;53.486;10.196;2023-03-01T08:26:06;12.68;;;6.45;;
71665;SDS011;59503;53.486;10.196;2023-03-01T08:28:34;15.38;;;6.55;;
71665;SDS011;59503;53.486;10.196;2023-03-01T08:31:00;18.95;;;6.70;;
71665;SDS011;59503;53.486;10.196;2023-03-01T08:33:26;19.27;;;6.67;;
71665;SDS011;59503;53.486;10.196;2023-03-01T08:35:51;13.93;;;6.10;;
71665;SDS011;59503;53.486;10.196;2023-03-01T08:38:17;12.43;;;5.87;;
71665;SDS011;59503;53.486;10.196;2023-03-01T08:40:42;13.53;;;6.30;;
71665;SDS011;59503;53.486;10.196;2023-03-01T08:43:07;20.23;;;7.00;;
71665;SDS011;59503;53.486;10.196;2023-03-01T08:45:33;13.63;;;6.10;;
71665;SDS011;59503;53.486;10.196;2023-03-01T08:47:58;17.63;;;5.93;;
71665;SDS011;59503;53.486;10.196;2023-03-01T08:50:24;10.90;;;5.47;;
71665;SDS011;59503;53.486;10.196;2023-03-01T08:52:50;11.32;;;6.25;;
71665;SDS011;59503;53.486;10.196;2023-03-01T08:55:16;15.33;;;6.77;;
71665;SDS011;59503;53.486;10.196;2023-03-01T08:57:42;14.20;;;6.50;;
71665;SDS011;59503;53.486;10.196;2023-03-01T09:00:08;14.98;;;5.88;;
71665;SDS011;59503;53.486;10.196;2023-03-01T09:02:36;15.43;;;6.38;;
71665;SDS011;59503;53.486;10.196;2023-03-01T09:05:01;17.67;;;6.30;;
71665;SDS011;59503;53.486;10.196;2023-03-01T09:07:27;18.63;;;6.45;;
71665;SDS011;59503;53.486;10.196;2023-03-01T09:09:55;17.43;;;6.60;;
71665;SDS011;59503;53.486;10.196;2023-03-01T09:12:21;12.20;;;5.97;;
71665;SDS011;59503;53.486;10.196;2023-03-01T09:14:47;22.27;;;6.70;;
71665;SDS011;59503;53.486;10.196;2023-03-01T09:17:12;23.15;;;8.02;;
71665;SDS011;59503;53.486;10.196;2023-03-01T09:19:37;16.13;;;6.53;;
71665;SDS011;59503;53.486;10.196;2023-03-01T09:22:03;17.23;;;7.60;;
71665;SDS011;59503;53.486;10.196;2023-03-01T09:24:29;19.63;;;6.80;;
71665;SDS011;59503;53.486;10.196;2023-03-01T09:26:55;34.77;;;7.20;;
71665;SDS011;59503;53.486;10.196;2023-03-01T09:29:21;16.90;;;7.07;;
71665;SDS011;59503;53.486;10.196;2023-03-01T09:31:47;17.77;;;6.90;;
71665;SDS011;59503;53.486;10.196;2023-03-01T09:34:12;20.20;;;6.73;;
71665;SDS011;59503;53.486;10.196;2023-03-01T09:36:41;16.73;;;7.10;;
71665;SDS011;59503;53.486;10.196;2023-03-01T09:39:06;18.00;;;6.97;;
71665;SDS011;59503;53.486;10.196;2023-03-01T09:44:29;17.67;;;7.25;;
71665;SDS011;59503;53.486;10.196;2023-03-01T09:47:05;15.10;;;7.00;;
71665;SDS011;59503;53.486;10.196;2023-03-01T09:49:34;17.57;;;7.30;;
71665;SDS011;59503;53.486;10.196;2023-03-01T09:52:12;14.35;;;7.22;;
71665;SDS011;59503;53.486;10.196;2023-03-01T09:54:49;15.18;;;7.68;;
71665;SDS011;59503;53.486;10.196;2023-03-01T10:00:20;16.13;;;7.97;;
71665;SDS011;59503;53.486;10.196;2023-03-01T10:10:36;15.13;;;7.38;;
71665;SDS011;59503;53.486;10.196;2023-03-01T10:16:14;15.50;;;7.80;;
71665;SDS011;59503;53.486;10.196;2023-03-01T10:18:46;13.70;;;7.50;;
71665;SDS011;59503;53.486;10.196;2023-03-01T10:21:17;16.20;;;7.13;;
71665;SDS011;59503;53.486;10.196;2023-03-01T10:23:44;14.50;;;7.50;;
71665;SDS011;59503;53.486;10.196;2023-03-01T10:26:14;18.40;;;7.80;;
71665;SDS011;59503;53.486;10.196;2023-03-01T10:28:47;18.50;;;8.37;;
71665;SDS011;59503;53.486;10.196;2023-03-01T10:31:20;13.60;;;7.40;;
71665;SDS011;59503;53.486;10.196;2023-03-01T10:33:53;14.55;;;7.43;;
71665;SDS011;59503;53.486;10.196;2023-03-01T10:36:21;15.43;;;7.13;;
71665;SDS011;59503;53.486;10.196;2023-03-01T10:38:54;20.90;;;7.70;;
71665;SDS011;59503;53.486;10.196;2023-03-01T10:41:22;14.80;;;7.27;;
71665;SDS011;59503;53.486;10.196;2023-03-01T10:43:50;20.55;;;7.25;;
71665;SDS011;59503;53.486;10.196;2023-03-01T10:46:26;13.32;;;6.22;;
71665;SDS011;59503;53.486;10.196;2023-03-01T10:49:13;10.45;;;6.38;;
71665;SDS011;59503;53.486;10.196;2023-03-01T10:51:48;13.82;;;7.20;;
71665;SDS011;59503;53.486;10.196;2023-03-01T10:54:28;13.60;;;7.20;;
71665;SDS011;59503;53.486;10.196;2023-03-01T10:56:55;13.60;;;7.40;;
71665;SDS011;59503;53.486;10.196;2023-03-01T10:59:25;14.60;;;7.40;;
71665;SDS011;59503;53.486;10.196;2023-03-01T11:02:12;17.23;;;8.57;;
71665;SDS011;59503;53.486;10.196;2023-03-01T11:10:18;15.75;;;7.00;;
71665;SDS011;59503;53.486;10.196;2023-03-01T11:12:48;20.42;;;9.98;;
71665;SDS011;59503;53.486;10.196;2023-03-01T11:15:21;22.37;;;11.00;;
71665;SDS011;59503;53.486;10.196;2023-03-01T11:17:49;20.55;;;11.10;;
71665;SDS011;59503;53.486;10.196;2023-03-01T11:20:25;20.00;;;10.25;;
71665;SDS011;59503;53.486;10.196;2023-03-01T11:22:57;20.13;;;10.57;;
71665;SDS011;59503;53.486;10.196;2023-03-01T11:25:27;14.60;;;8.03;;
71665;SDS011;59503;53.486;10.196;2023-03-01T11:27:56;14.65;;;8.00;;
71665;SDS011;59503;53.486;10.196;2023-03-01T11:33:18;17.73;;;8.55;;
71665;SDS011;59503;53.486;10.196;2023-03-01T11:36:21;14.32;;;7.90;;
71665;SDS011;59503;53.486;10.196;2023-03-01T11:38:53;14.97;;;7.90;;
71665;SDS011;59503;53.486;10.196;2023-03-01T11:41:21;15.07;;;8.27;;
71665;SDS011;59503;53.486;10.196;2023-03-01T11:43:55;14.68;;;7.63;;
71665;SDS011;59503;53.486;10.196;2023-03-01T11:49:30;14.20;;;7.28;;
71665;SDS011;59503;53.486;10.196;2023-03-01T12:08:35;14.50;;;7.05;;
71665;SDS011;59503;53.486;10.196;2023-03-01T12:16:27;15.00;;;7.88;;
71665;SDS011;59503;53.486;10.196;2023-03-01T12:29:37;12.40;;;6.90;;
71665;SDS011;59503;53.486;10.196;2023-03-01T12:43:06;12.38;;;6.53;;
71665;SDS011;59503;53.486;10.196;2023-03-01T12:49:21;10.70;;;6.38;;
71665;SDS011;59503;53.486;10.196;2023-03-01T12:51:39;12.90;;;6.75;;
71665;SDS011;59503;53.486;10.196;2023-03-01T12:54:16;12.35;;;6.07;;
71665;SDS011;59503;53.486;10.196;2023-03-01T12:56:51;12.73;;;7.00;;
71665;SDS011;59503;53.486;10.196;2023-03-01T12:59:32;12.40;;;6.80;;
71665;SDS011;59503;53.486;10.196;2023-03-01T13:02:09;12.70;;;6.57;;
71665;SDS011;59503;53.486;10.196;2023-03-01T13:04:54;11.77;;;6.78;;
71665;SDS011;59503;53.486;10.196;2023-03-01T13:07:44;14.68;;;7.07;;
71665;SDS011;59503;53.486;10.196;2023-03-01T13:10:40;11.27;;;6.63;;
71665;SDS011;59503;53.486;10.196;2023-03-01T13:13:30;14.10;;;6.53;;
71665;SDS011;59503;53.486;10.196;2023-03-01T13:15:55;10.63;;;6.22;;
71665;SDS011;59503;53.486;10.196;2023-03-01T13:20:49;11.38;;;5.88;;
71665;SDS011;59503;53.486;10.196;2023-03-01T13:31:03;11.60;;;5.20;;
71665;SDS011;59503;53.486;10.196;2023-03-01T13:35:59;7.83;;;4.87;;
71665;SDS011;59503;53.486;10.196;2023-03-01T13:41:12;8.35;;;4.20;;
71665;SDS011;59503;53.486;10.196;2023-03-01T13:43:40;8.90;;;4.32;;
71665;SDS011;59503;53.486;10.196;2023-03-01T13:46:08;7.93;;;3.90;;
71665;SDS011;59503;53.486;10.196;2023-03-01T13:48:36;7.70;;;3.57;;
71665;SDS011;59503;53.486;10.196;2023-03-01T13:51:08;11.45;;;4.53;;
71665;SDS011;59503;53.486;10.196;2023-03-01T13:53:36;7.85;;;4.05;;
71665;SDS011;59503;53.486;10.196;2023-03-01T13:56:13;6.72;;;4.00;;
71665;SDS011;59503;53.486;10.196;2023-03-01T14:01:30;6.37;;;3.53;;
71665;SDS011;59503;53.486;10.196;2023-03-01T14:03:58;8.05;;;3.42;;
71665;SDS011;59503;53.486;10.196;2023-03-01T14:06:25;6.68;;;3.30;;
71665;SDS011;59503;53.486;10.196;2023-03-01T14:09:01;6.88;;;3.28;;
71665;SDS011;59503;53.486;10.196;2023-03-01T14:14:05;6.77;;;3.53;;
71665;SDS011;59503;53.486;10.196;2023-03-01T14:19:41;6.88;;;3.85;;
71665;SDS011;59503;53.486;10.196;2023-03-01T14:24:38;8.33;;;3.90;;
71665;SDS011;59503;53.486;10.196;2023-03-01T14:27:12;6.88;;;3.63;;
71665;SDS011;59503;53.486;10.196;2023-03-01T14:29:38;7.95;;;3.60;;
71665;SDS011;59503;53.486;10.196;2023-03-01T14:32:08;7.70;;;3.53;;
71665;SDS011;59503;53.486;10.196;2023-03-01T14:34:49;7.32;;;3.60;;
71665;SDS011;59503;53.486;10.196;2023-03-01T14:37:17;7.43;;;3.75;;
71665;SDS011;59503;53.486;10.196;2023-03-01T14:39:46;5.78;;;3.53;;
71665;SDS011;59503;53.486;10.196;2023-03-01T14:42:12;7.70;;;3.80;;
71665;SDS011;59503;53.486;10.196;2023-03-01T14:44:40;6.68;;;3.58;;
71665;SDS011;59503;53.486;10.196;2023-03-01T14:47:12;6.43;;;3.50;;
71665;SDS011;59503;53.486;10.196;2023-03-01T14:49:41;9.02;;;4.68;;
71665;SDS011;59503;53.486;10.196;2023-03-01T14:52:18;8.15;;;4.10;;
71665;SDS011;59503;53.486;10.196;2023-03-01T14:54:50;8.07;;;4.03;;
71665;SDS011;59503;53.486;10.196;2023-03-01T14:57:25;8.15;;;4.05;;
71665;SDS011;59503;53.486;10.196;2023-03-01T14:59:52;8.05;;;4.15;;
71665;SDS011;59503;53.486;10.196;2023-03-01T15:02:21;6.63;;;3.83;;
71665;SDS011;59503;53.486;10.196;2023-03-01T15:04:50;7.20;;;4.00;;
71665;SDS011;59503;53.486;10.196;2023-03-01T15:07:17;8.77;;;4.40;;
71665;SDS011;59503;53.486;10.196;2023-03-01T15:09:44;6.97;;;3.83;;
71665;SDS011;59503;53.486;10.196;2023-03-01T15:14:55;8.75;;;4.35;;
71665;SDS011;59503;53.486;10.196;2023-03-01T15:19:55;9.13;;;4.27;;
71665;SDS011;59503;53.486;10.196;2023-03-01T15:22:21;8.27;;;4.45;;
71665;SDS011;59503;53.486;10.196;2023-03-01T15:24:49;10.40;;;4.30;;
71665;SDS011;59503;53.486;10.196;2023-03-01T15:27:22;7.93;;;4.25;;
71665;SDS011;59503;53.486;10.196;2023-03-01T15:29:52;8.33;;;4.07;;
71665;SDS011;59503;53.486;10.196;2023-03-01T15:32:26;7.63;;;4.50;;
71665;SDS011;59503;53.486;10.196;2023-03-01T15:34:59;7.88;;;4.32;;
71665;SDS011;59503;53.486;10.196;2023-03-01T15:37:48;8.25;;;4.38;;
71665;SDS011;59503;53.486;10.196;2023-03-01T15:40:23;11.60;;;4.10;;
71665;SDS011;59503;53.486;10.196;2023-03-01T15:42:59;7.03;;;3.87;;
71665;SDS011;59503;53.486;10.196;2023-03-01T15:45:30;6.28;;;3.67;;
71665;SDS011;59503;53.486;10.196;2023-03-01T15:48:05;6.68;;;3.58;;
71665;SDS011;59503;53.486;10.196;2023-03-01T15:50:42;6.07;;;3.80;;
71665;SDS011;59503;53.486;10.196;2023-03-01T15:53:12;8.43;;;3.63;;
71665;SDS011;59503;53.486;10.196;2023-03-01T15:55:40;7.77;;;3.80;;
71665;SDS011;59503;53.486;10.196;2023-03-01T16:00:38;9.07;;;3.38;;
71665;SDS011;59503;53.486;10.196;2023-03-01T16:03:04;7.30;;;3.67;;
71665;SDS011;59503;53.486;10.196;2023-03-01T16:05:33;5.80;;;3.17;;
71665;SDS011;59503;53.486;10.196;2023-03-01T16:08:01;5.05;;;2.50;;
71665;SDS011;59503;53.486;10.196;2023-03-01T16:10:27;5.90;;;2.90;;
71665;SDS011;59503;53.486;10.196;2023-03-01T16:12:54;5.63;;;2.67;;
71665;SDS011;59503;53.486;10.196;2023-03-01T16:15:25;6.30;;;2.80;;
71665;SDS011;59503;53.486;10.196;2023-03-01T16:17:53;7.28;;;3.42;;
71665;SDS011;59503;53.486;10.196;2023-03-01T16:20:18;8.17;;;3.00;;
71665;SDS011;59503;53.486;10.196;2023-03-01T16:22:44;5.90;;;3.20;;
71665;SDS011;59503;53.486;10.196;2023-03-01T16:25:11;10.15;;;3.70;;
71665;SDS011;59503;53.486;10.196;2023-03-01T16:27:38;6.40;;;3.30;;
71665;SDS011;59503;53.486;10.196;2023-03-01T16:30:07;7.70;;;3.50;;